Strona główna
METAR-TAF:

METAR-TAF

Lotnisko :

Castres, Francja

Szerokość geograficzna: 43-33-25N, Długość geograficzna: 2-17-21E, wysokość: 239 m

Aktualna obserwacja pogody

Raport powstał 18 minut temu, godzina 23:30 UTC
Wiatr 26 kt od wschodnio-południowy wschód
Temperatura 13°C
Wilgotność 51%
Ciśnienie 1017 hPa
Widzialność 10 km lub więcej
Brak chmur poniżej 1500 m i brak chmur cumulonimbus

METAR: LFCK 042330Z AUTO 12026KT CAVOK 13/03 Q1017

czas: 01:48 (23:48 UTC)


TAF: brakujący

Obserwacja i prognoza pogody dla ponad 4000 lotnisk (raport METAR i TAF).

Dostępne stacje oznaczono żółtymi i czerwonymi punktami na mapie.

Najedź kursorem aby zobaczyć nazwę stacji.

Kliknij aby zobaczyć obserwacje i prognozy pogody.

Aby zmienić mapę: kliknij na zielony przycisk z czarnym krzyżykiem, aby powiększyć; na zielony przycisk z myślnikiem, aby pomniejszyć; na zielone strzałki, aby przejść do map sąsiednich.


METAR-TAF: